sensor_id;sensor_type;location;lat;lon;timestamp;pressure;altitude;pressure_sealevel;temperature;humidity
62544;BME280;48597;49.030;1.822;2023-05-06T00:00:30;100835.88;;;20.19;49.32
62544;BME280;48597;49.030;1.822;2023-05-06T00:02:56;100839.19;;;20.17;49.36
62544;BME280;48597;49.030;1.822;2023-05-06T00:05:21;100847.78;;;20.17;49.29
62544;BME280;48597;49.030;1.822;2023-05-06T00:07:46;100840.44;;;20.16;49.26
62544;BME280;48597;49.030;1.822;2023-05-06T00:10:12;100834.72;;;20.16;49.56
62544;BME280;48597;49.030;1.822;2023-05-06T00:12:38;100831.06;;;20.16;49.38
62544;BME280;48597;49.030;1.822;2023-05-06T00:15:04;100833.94;;;20.16;49.25
62544;BME280;48597;49.030;1.822;2023-05-06T00:17:29;100839.66;;;20.16;49.22
62544;BME280;48597;49.030;1.822;2023-05-06T00:19:55;100837.25;;;20.14;49.38
62544;BME280;48597;49.030;1.822;2023-05-06T00:22:23;100833.13;;;20.15;49.23
62544;BME280;48597;49.030;1.822;2023-05-06T00:24:48;100845.03;;;20.14;49.36
62544;BME280;48597;49.030;1.822;2023-05-06T00:27:14;100839.28;;;20.14;49.22
62544;BME280;48597;49.030;1.822;2023-05-06T00:29:39;100832.78;;;20.13;49.36
62544;BME280;48597;49.030;1.822;2023-05-06T00:32:05;100834.81;;;20.13;49.21
62544;BME280;48597;49.030;1.822;2023-05-06T00:34:30;100825.47;;;20.12;49.09
62544;BME280;48597;49.030;1.822;2023-05-06T00:36:56;100821.81;;;20.12;49.20
62544;BME280;48597;49.030;1.822;2023-05-06T00:39:21;100827.53;;;20.12;49.08
62544;BME280;48597;49.030;1.822;2023-05-06T00:41:47;100828.34;;;20.12;49.11
62544;BME280;48597;49.030;1.822;2023-05-06T00:44:12;100818.94;;;20.12;49.11
62544;BME280;48597;49.030;1.822;2023-05-06T00:46:38;100821.00;;;20.11;49.05
62544;BME280;48597;49.030;1.822;2023-05-06T00:49:04;100823.88;;;20.11;49.06
62544;BME280;48597;49.030;1.822;2023-05-06T00:51:29;100828.78;;;20.11;49.22
62544;BME280;48597;49.030;1.822;2023-05-06T00:53:55;100825.13;;;20.10;49.24
62544;BME280;48597;49.030;1.822;2023-05-06T00:56:21;100821.44;;;20.10;49.25
62544;BME280;48597;49.030;1.822;2023-05-06T00:58:47;100824.31;;;20.10;49.09
62544;BME280;48597;49.030;1.822;2023-05-06T01:01:12;100814.13;;;20.09;49.18
62544;BME280;48597;49.030;1.822;2023-05-06T01:03:38;100813.31;;;20.08;49.03
62544;BME280;48597;49.030;1.822;2023-05-06T01:14:18;100808.84;;;20.07;48.96
62544;BME280;48597;49.030;1.822;2023-05-06T01:16:46;100813.75;;;20.07;49.02
62544;BME280;48597;49.030;1.822;2023-05-06T01:19:28;100804.38;;;20.06;49.10
62544;BME280;48597;49.030;1.822;2023-05-06T01:22:00;100800.72;;;20.06;49.08
62544;BME280;48597;49.030;1.822;2023-05-06T01:24:45;100806.44;;;20.06;48.95
62544;BME280;48597;49.030;1.822;2023-05-06T01:27:13;100806.44;;;20.06;49.03
62544;BME280;48597;49.030;1.822;2023-05-06T01:29:40;100801.16;;;20.04;49.08
62544;BME280;48597;49.030;1.822;2023-05-06T01:35:14;100803.22;;;20.04;49.10
62544;BME280;48597;49.030;1.822;2023-05-06T01:37:46;100805.28;;;20.03;48.97
62544;BME280;48597;49.030;1.822;2023-05-06T01:43:39;100798.88;;;19.99;49.27
62544;BME280;48597;49.030;1.822;2023-05-06T01:46:07;100800.47;;;20.00;49.14
62544;BME280;48597;49.030;1.822;2023-05-06T01:48:36;100794.41;;;19.98;49.23
62544;BME280;48597;49.030;1.822;2023-05-06T01:51:04;100796.03;;;19.99;49.22
62544;BME280;48597;49.030;1.822;2023-05-06T01:53:30;100796.78;;;19.99;49.02
62544;BME280;48597;49.030;1.822;2023-05-06T01:55:56;100804.13;;;20.01;48.82
62544;BME280;48597;49.030;1.822;2023-05-06T01:58:21;100797.59;;;20.00;48.97
62544;BME280;48597;49.030;1.822;2023-05-06T02:00:47;100805.38;;;19.99;49.10
62544;BME280;48597;49.030;1.822;2023-05-06T02:03:12;100800.47;;;20.00;49.10
62544;BME280;48597;49.030;1.822;2023-05-06T02:05:38;100802.50;;;19.99;49.06
62544;BME280;48597;49.030;1.822;2023-05-06T02:08:03;100798.88;;;19.99;48.92
62544;BME280;48597;49.030;1.822;2023-05-06T02:10:28;100798.88;;;19.99;49.01
62544;BME280;48597;49.030;1.822;2023-05-06T02:12:54;100804.59;;;19.99;49.08
62544;BME280;48597;49.030;1.822;2023-05-06T02:15:19;100800.94;;;19.98;49.15
62544;BME280;48597;49.030;1.822;2023-05-06T02:17:44;100800.13;;;19.98;48.91
62544;BME280;48597;49.030;1.822;2023-05-06T02:20:10;100799.34;;;19.97;49.16
62544;BME280;48597;49.030;1.822;2023-05-06T02:22:35;100800.13;;;19.98;48.84
62544;BME280;48597;49.030;1.822;2023-05-06T02:25:01;100796.47;;;19.97;48.88
62544;BME280;48597;49.030;1.822;2023-05-06T02:27:26;100794.88;;;19.96;48.83
62544;BME280;48597;49.030;1.822;2023-05-06T02:29:52;100797.72;;;19.96;48.84
62544;BME280;48597;49.030;1.822;2023-05-06T02:32:17;100794.88;;;19.96;48.81
62544;BME280;48597;49.030;1.822;2023-05-06T02:34:42;100796.13;;;19.95;49.07
62544;BME280;48597;49.030;1.822;2023-05-06T02:37:08;100796.13;;;19.95;48.81
62544;BME280;48597;49.030;1.822;2023-05-06T02:39:33;100790.41;;;19.95;48.91
62544;BME280;48597;49.030;1.822;2023-05-06T02:41:59;100798.16;;;19.95;48.77
62544;BME280;48597;49.030;1.822;2023-05-06T02:44:24;100789.59;;;19.95;48.88
62544;BME280;48597;49.030;1.822;2023-05-06T02:46:50;100803.91;;;19.95;48.80
62544;BME280;48597;49.030;1.822;2023-05-06T02:49:15;100795.31;;;19.95;48.69
62544;BME280;48597;49.030;1.822;2023-05-06T02:51:40;100795.31;;;19.95;48.79
62544;BME280;48597;49.030;1.822;2023-05-06T02:54:06;100790.84;;;19.94;48.79
62544;BME280;48597;49.030;1.822;2023-05-06T02:56:31;100794.97;;;19.93;48.78
62544;BME280;48597;49.030;1.822;2023-05-06T02:58:57;100788.44;;;19.92;48.80
62544;BME280;48597;49.030;1.822;2023-05-06T03:01:22;100784.78;;;19.92;48.82
62544;BME280;48597;49.030;1.822;2023-05-06T03:03:48;100785.56;;;19.92;48.89
62544;BME280;48597;49.030;1.822;2023-05-06T03:06:13;100784.78;;;19.92;48.87
62544;BME280;48597;49.030;1.822;2023-05-06T03:08:38;100781.91;;;19.92;48.87
62544;BME280;48597;49.030;1.822;2023-05-06T03:11:04;100781.91;;;19.92;48.78
62544;BME280;48597;49.030;1.822;2023-05-06T03:13:29;100784.78;;;19.92;48.78
62544;BME280;48597;49.030;1.822;2023-05-06T03:15:55;100786.03;;;19.91;48.78
62544;BME280;48597;49.030;1.822;2023-05-06T03:18:20;100788.09;;;19.90;48.72
62544;BME280;48597;49.030;1.822;2023-05-06T03:20:47;100785.22;;;19.90;48.65
62544;BME280;48597;49.030;1.822;2023-05-06T03:23:16;100783.16;;;19.91;48.80
62544;BME280;48597;49.030;1.822;2023-05-06T03:25:41;100778.69;;;19.90;48.72
62544;BME280;48597;49.030;1.822;2023-05-06T03:28:06;100782.34;;;19.90;48.75
62544;BME280;48597;49.030;1.822;2023-05-06T03:30:32;100774.22;;;19.89;48.69
62544;BME280;48597;49.030;1.822;2023-05-06T03:32:59;100772.97;;;19.90;48.63
62544;BME280;48597;49.030;1.822;2023-05-06T03:35:25;100768.50;;;19.89;48.72
62544;BME280;48597;49.030;1.822;2023-05-06T03:37:50;100773.41;;;19.88;48.66
62544;BME280;48597;49.030;1.822;2023-05-06T03:40:16;100777.09;;;19.89;48.73
62544;BME280;48597;49.030;1.822;2023-05-06T03:42:41;100768.50;;;19.89;48.64
62544;BME280;48597;49.030;1.822;2023-05-06T03:45:07;100766.91;;;19.88;48.80
62544;BME280;48597;49.030;1.822;2023-05-06T03:47:32;100772.63;;;19.88;48.86
62544;BME280;48597;49.030;1.822;2023-05-06T03:49:58;100766.09;;;19.87;48.67
62544;BME280;48597;49.030;1.822;2023-05-06T03:52:23;100771.00;;;19.87;48.74
62544;BME280;48597;49.030;1.822;2023-05-06T03:54:48;100759.56;;;19.87;48.67
62544;BME280;48597;49.030;1.822;2023-05-06T03:57:14;100765.28;;;19.87;48.69
62544;BME280;48597;49.030;1.822;2023-05-06T03:59:39;100753.03;;;19.86;48.69
62544;BME280;48597;49.030;1.822;2023-05-06T04:02:05;100758.78;;;19.86;48.58
62544;BME280;48597;49.030;1.822;2023-05-06T04:04:30;100750.66;;;19.85;48.57
62544;BME280;48597;49.030;1.822;2023-05-06T04:06:56;100758.00;;;19.86;48.59
62544;BME280;48597;49.030;1.822;2023-05-06T04:09:21;100755.13;;;19.86;48.58
62544;BME280;48597;49.030;1.822;2023-05-06T04:11:46;100753.53;;;19.85;48.58
62544;BME280;48597;49.030;1.822;2023-05-06T04:14:12;100752.72;;;19.84;48.69
62544;BME280;48597;49.030;1.822;2023-05-06T04:16:37;100754.78;;;19.84;48.55
62544;BME280;48597;49.030;1.822;2023-05-06T04:19:02;100756.38;;;19.85;48.62
62544;BME280;48597;49.030;1.822;2023-05-06T04:21:28;100759.69;;;19.83;48.62
62544;BME280;48597;49.030;1.822;2023-05-06T04:23:54;100761.31;;;19.84;48.59
62544;BME280;48597;49.030;1.822;2023-05-06T04:26:20;100753.16;;;19.83;48.33
62544;BME280;48597;49.030;1.822;2023-05-06T04:28:45;100753.16;;;19.83;48.64
62544;BME280;48597;49.030;1.822;2023-05-06T04:31:11;100753.16;;;19.83;48.51
62544;BME280;48597;49.030;1.822;2023-05-06T04:33:38;100746.66;;;19.82;48.54
62544;BME280;48597;49.030;1.822;2023-05-06T04:36:04;100746.66;;;19.82;48.58
62544;BME280;48597;49.030;1.822;2023-05-06T04:38:30;100745.03;;;19.81;48.47
62544;BME280;48597;49.030;1.822;2023-05-06T04:40:56;100749.97;;;19.81;48.47
62544;BME280;48597;49.030;1.822;2023-05-06T04:43:21;100749.16;;;19.80;48.61
62544;BME280;48597;49.030;1.822;2023-05-06T04:45:47;100752.81;;;19.81;48.62
62544;BME280;48597;49.030;1.822;2023-05-06T04:48:19;100757.28;;;19.82;48.64
62544;BME280;48597;49.030;1.822;2023-05-06T04:50:47;100754.06;;;19.80;48.52
62544;BME280;48597;49.030;1.822;2023-05-06T04:53:13;100759.78;;;19.80;48.44
62544;BME280;48597;49.030;1.822;2023-05-06T04:55:38;100752.81;;;19.81;48.55
62544;BME280;48597;49.030;1.822;2023-05-06T04:58:04;100767.13;;;19.81;48.45
62544;BME280;48597;49.030;1.822;2023-05-06T05:00:29;100774.09;;;19.80;48.54
62544;BME280;48597;49.030;1.822;2023-05-06T05:02:54;100776.94;;;19.80;48.46
62544;BME280;48597;49.030;1.822;2023-05-06T05:05:20;100773.66;;;19.81;48.46
62544;BME280;48597;49.030;1.822;2023-05-06T05:07:45;100776.16;;;19.79;48.57
62544;BME280;48597;49.030;1.822;2023-05-06T05:10:11;100774.09;;;19.80;48.58
62544;BME280;48597;49.030;1.822;2023-05-06T05:12:36;100778.22;;;19.79;48.52
62544;BME280;48597;49.030;1.822;2023-05-06T05:15:02;100770.44;;;19.79;48.48
62544;BME280;48597;49.030;1.822;2023-05-06T05:17:28;100766.75;;;19.79;48.55
62544;BME280;48597;49.030;1.822;2023-05-06T05:19:53;100783.94;;;19.79;48.50
62544;BME280;48597;49.030;1.822;2023-05-06T05:22:19;100776.16;;;19.79;48.31
62544;BME280;48597;49.030;1.822;2023-05-06T05:24:44;100775.34;;;19.79;48.37
62544;BME280;48597;49.030;1.822;2023-05-06T05:27:09;100773.75;;;19.78;48.33
62544;BME280;48597;49.030;1.822;2023-05-06T05:29:35;100770.88;;;19.78;48.28
62544;BME280;48597;49.030;1.822;2023-05-06T05:32:01;100773.75;;;19.78;48.38
62544;BME280;48597;49.030;1.822;2023-05-06T05:34:26;100775.78;;;19.77;48.47
62544;BME280;48597;49.030;1.822;2023-05-06T05:36:52;100778.66;;;19.77;48.50
62544;BME280;48597;49.030;1.822;2023-05-06T05:39:17;100775.00;;;19.77;48.39
62544;BME280;48597;49.030;1.822;2023-05-06T05:41:42;100779.47;;;19.78;48.38
62544;BME280;48597;49.030;1.822;2023-05-06T05:44:08;100786.44;;;19.77;48.43
62544;BME280;48597;49.030;1.822;2023-05-06T05:46:33;100792.97;;;19.77;48.32
62544;BME280;48597;49.030;1.822;2023-05-06T05:48:59;100792.16;;;19.77;48.43
62544;BME280;48597;49.030;1.822;2023-05-06T05:51:24;100792.16;;;19.77;48.41
62544;BME280;48597;49.030;1.822;2023-05-06T05:53:49;100792.16;;;19.77;48.31
62544;BME280;48597;49.030;1.822;2023-05-06T05:56:16;100788.03;;;19.78;48.28
62544;BME280;48597;49.030;1.822;2023-05-06T05:58:41;100795.81;;;19.77;48.43
62544;BME280;48597;49.030;1.822;2023-05-06T06:01:07;100789.28;;;19.77;48.25
62544;BME280;48597;49.030;1.822;2023-05-06T06:03:32;100795.81;;;19.77;48.29
62544;BME280;48597;49.030;1.822;2023-05-06T06:05:57;100795.81;;;19.77;48.46
62544;BME280;48597;49.030;1.822;2023-05-06T06:08:23;100797.88;;;19.77;48.33
62544;BME280;48597;49.030;1.822;2023-05-06T06:10:48;100791.34;;;19.76;48.31
62544;BME280;48597;49.030;1.822;2023-05-06T06:13:14;100799.94;;;19.76;48.33
62544;BME280;48597;49.030;1.822;2023-05-06T06:15:39;100791.34;;;19.76;48.37
62544;BME280;48597;49.030;1.822;2023-05-06T06:18:05;100799.94;;;19.76;48.31
62544;BME280;48597;49.030;1.822;2023-05-06T06:20:33;100795.00;;;19.77;48.20
62544;BME280;48597;49.030;1.822;2023-05-06T06:22:59;100790.09;;;19.77;48.01
62544;BME280;48597;49.030;1.822;2023-05-06T06:25:24;100789.28;;;19.77;47.99
62544;BME280;48597;49.030;1.822;2023-05-06T06:27:50;100797.06;;;19.76;48.29
62544;BME280;48597;49.030;1.822;2023-05-06T06:30:15;100799.94;;;19.76;48.37
62544;BME280;48597;49.030;1.822;2023-05-06T06:32:48;100799.94;;;19.76;48.25
62544;BME280;48597;49.030;1.822;2023-05-06T06:35:14;100799.94;;;19.76;48.21
62544;BME280;48597;49.030;1.822;2023-05-06T06:37:40;100797.88;;;19.77;48.24
62544;BME280;48597;49.030;1.822;2023-05-06T06:40:05;100801.97;;;19.76;48.16
62544;BME280;48597;49.030;1.822;2023-05-06T06:42:31;100797.88;;;19.77;48.16
62544;BME280;48597;49.030;1.822;2023-05-06T06:44:56;100800.72;;;19.77;48.26
62544;BME280;48597;49.030;1.822;2023-05-06T06:47:22;100800.72;;;19.77;48.29
62544;BME280;48597;49.030;1.822;2023-05-06T06:49:47;100798.69;;;19.77;48.65
62544;BME280;48597;49.030;1.822;2023-05-06T06:52:12;100795.81;;;19.77;48.26
62544;BME280;48597;49.030;1.822;2023-05-06T06:54:38;100799.47;;;19.78;48.20
62544;BME280;48597;49.030;1.822;2023-05-06T06:57:05;100809.66;;;19.79;48.28
62544;BME280;48597;49.030;1.822;2023-05-06T06:59:30;100810.91;;;19.78;48.20
62544;BME280;48597;49.030;1.822;2023-05-06T07:01:55;100808.06;;;19.78;48.29
62544;BME280;48597;49.030;1.822;2023-05-06T07:04:21;100812.53;;;19.79;48.11
62544;BME280;48597;49.030;1.822;2023-05-06T07:06:46;100808.06;;;19.78;48.31
62544;BME280;48597;49.030;1.822;2023-05-06T07:09:12;100809.66;;;19.79;48.07
62544;BME280;48597;49.030;1.822;2023-05-06T07:11:37;100807.59;;;19.79;48.24
62544;BME280;48597;49.030;1.822;2023-05-06T07:14:03;100810.91;;;19.78;48.31
62544;BME280;48597;49.030;1.822;2023-05-06T07:16:28;100809.66;;;19.79;48.13
62544;BME280;48597;49.030;1.822;2023-05-06T07:18:54;100812.09;;;19.80;48.10
62544;BME280;48597;49.030;1.822;2023-05-06T07:21:19;100814.94;;;19.80;48.10
62544;BME280;48597;49.030;1.822;2023-05-06T07:23:44;100812.09;;;19.80;48.21
62544;BME280;48597;49.030;1.822;2023-05-06T07:26:10;100815.75;;;19.81;48.21
62544;BME280;48597;49.030;1.822;2023-05-06T07:28:35;100812.88;;;19.81;48.18
62544;BME280;48597;49.030;1.822;2023-05-06T07:31:01;100811.28;;;19.80;48.12
62544;BME280;48597;49.030;1.822;2023-05-06T07:33:26;100817.34;;;19.82;48.18
62544;BME280;48597;49.030;1.822;2023-05-06T07:35:52;100811.63;;;19.82;48.16
62544;BME280;48597;49.030;1.822;2023-05-06T07:38:22;100818.97;;;19.83;48.15
62544;BME280;48597;49.030;1.822;2023-05-06T07:40:49;100816.09;;;19.83;48.11
62544;BME280;48597;49.030;1.822;2023-05-06T07:43:15;100814.03;;;19.83;48.26
62544;BME280;48597;49.030;1.822;2023-05-06T07:45:40;100816.09;;;19.83;48.17
62544;BME280;48597;49.030;1.822;2023-05-06T07:48:06;100817.72;;;19.84;48.21
62544;BME280;48597;49.030;1.822;2023-05-06T07:50:31;100820.13;;;19.85;48.21
62544;BME280;48597;49.030;1.822;2023-05-06T07:52:57;100820.56;;;19.84;48.15
62544;BME280;48597;49.030;1.822;2023-05-06T07:55:22;100827.09;;;19.84;48.20
62544;BME280;48597;49.030;1.822;2023-05-06T07:57:51;100819.31;;;19.85;48.16
62544;BME280;48597;49.030;1.822;2023-05-06T08:00:17;100815.19;;;19.86;48.13
62544;BME280;48597;49.030;1.822;2023-05-06T08:02:42;100825.34;;;19.87;48.27
62544;BME280;48597;49.030;1.822;2023-05-06T08:05:09;100818.84;;;19.86;48.13
62544;BME280;48597;49.030;1.822;2023-05-06T08:07:35;100824.56;;;19.86;48.31
62544;BME280;48597;49.030;1.822;2023-05-06T08:10:01;100824.56;;;19.86;48.48
62544;BME280;48597;49.030;1.822;2023-05-06T08:12:26;100825.34;;;19.87;48.81
62544;BME280;48597;49.030;1.822;2023-05-06T08:14:52;100834.75;;;19.87;48.82
62544;BME280;48597;49.030;1.822;2023-05-06T08:17:19;100826.16;;;19.87;48.68
62544;BME280;48597;49.030;1.822;2023-05-06T08:19:44;100817.59;;;19.87;48.60
62544;BME280;48597;49.030;1.822;2023-05-06T08:22:10;100824.91;;;19.88;48.90
62544;BME280;48597;49.030;1.822;2023-05-06T08:24:35;100825.72;;;19.89;48.96
62544;BME280;48597;49.030;1.822;2023-05-06T08:27:00;100830.63;;;19.88;49.09
62544;BME280;48597;49.030;1.822;2023-05-06T08:29:26;100820.00;;;19.89;49.21
62544;BME280;48597;49.030;1.822;2023-05-06T08:31:51;100831.00;;;19.90;49.13
62544;BME280;48597;49.030;1.822;2023-05-06T08:34:17;100820.78;;;19.89;49.23
62544;BME280;48597;49.030;1.822;2023-05-06T08:36:44;100818.75;;;19.90;49.30
62544;BME280;48597;49.030;1.822;2023-05-06T08:39:10;100823.22;;;19.91;49.21
62544;BME280;48597;49.030;1.822;2023-05-06T08:41:37;100828.13;;;19.90;49.15
62544;BME280;48597;49.030;1.822;2023-05-06T08:44:04;100832.59;;;19.91;49.25
62544;BME280;48597;49.030;1.822;2023-05-06T08:46:30;100826.88;;;19.91;49.20
62544;BME280;48597;49.030;1.822;2023-05-06T08:48:59;100825.63;;;19.92;49.32
62544;BME280;48597;49.030;1.822;2023-05-06T08:51:28;100824.38;;;19.93;49.33
62544;BME280;48597;49.030;1.822;2023-05-06T08:53:59;100822.31;;;19.94;49.32
62544;BME280;48597;49.030;1.822;2023-05-06T08:56:28;100820.25;;;19.94;49.19
62544;BME280;48597;49.030;1.822;2023-05-06T08:58:55;100817.41;;;19.94;49.45
62544;BME280;48597;49.030;1.822;2023-05-06T09:01:20;100818.19;;;19.95;49.47
62544;BME280;48597;49.030;1.822;2023-05-06T09:03:46;100818.19;;;19.95;49.40
62544;BME280;48597;49.030;1.822;2023-05-06T09:06:12;100825.53;;;19.96;49.29
62544;BME280;48597;49.030;1.822;2023-05-06T09:08:38;100823.47;;;19.96;49.37
62544;BME280;48597;49.030;1.822;2023-05-06T09:13:46;100826.34;;;19.96;49.45
62544;BME280;48597;49.030;1.822;2023-05-06T09:16:25;100815.69;;;19.97;49.43
62544;BME280;48597;49.030;1.822;2023-05-06T09:18:51;100823.03;;;19.98;49.42
62544;BME280;48597;49.030;1.822;2023-05-06T09:21:16;100822.22;;;19.97;49.41
62544;BME280;48597;49.030;1.822;2023-05-06T09:23:42;100809.53;;;19.98;49.39
62544;BME280;48597;49.030;1.822;2023-05-06T09:26:08;100813.50;;;20.01;49.39
62544;BME280;48597;49.030;1.822;2023-05-06T09:28:33;100815.56;;;20.01;49.48
62544;BME280;48597;49.030;1.822;2023-05-06T09:30:59;100809.03;;;20.00;49.35
62544;BME280;48597;49.030;1.822;2023-05-06T09:33:26;100813.50;;;20.01;49.52
62544;BME280;48597;49.030;1.822;2023-05-06T09:35:51;100813.06;;;20.03;49.45
62544;BME280;48597;49.030;1.822;2023-05-06T09:38:17;100802.41;;;20.03;49.58
62544;BME280;48597;49.030;1.822;2023-05-06T09:40:42;100804.03;;;20.04;49.54
62544;BME280;48597;49.030;1.822;2023-05-06T09:43:08;100807.69;;;20.05;49.66
62544;BME280;48597;49.030;1.822;2023-05-06T09:45:35;100793.38;;;20.05;49.53
62544;BME280;48597;49.030;1.822;2023-05-06T09:48:00;100795.78;;;20.06;49.47
62544;BME280;48597;49.030;1.822;2023-05-06T09:50:26;100800.72;;;20.06;49.55
62544;BME280;48597;49.030;1.822;2023-05-06T09:52:53;100799.47;;;20.07;49.50
62544;BME280;48597;49.030;1.822;2023-05-06T09:55:21;100796.59;;;20.07;49.53
62544;BME280;48597;49.030;1.822;2023-05-06T09:57:47;100798.22;;;20.08;49.62
62544;BME280;48597;49.030;1.822;2023-05-06T10:00:14;100799.81;;;20.09;49.68
62544;BME280;48597;49.030;1.822;2023-05-06T10:02:41;100794.09;;;20.09;49.71
62544;BME280;48597;49.030;1.822;2023-05-06T10:05:08;100794.91;;;20.09;49.56
62544;BME280;48597;49.030;1.822;2023-05-06T10:07:34;100797.75;;;20.09;49.61
62544;BME280;48597;49.030;1.822;2023-05-06T10:10:02;100785.84;;;20.11;49.69
62544;BME280;48597;49.030;1.822;2023-05-06T10:12:28;100785.84;;;20.11;49.52
62544;BME280;48597;49.030;1.822;2023-05-06T10:14:54;100780.13;;;20.11;49.70
62544;BME280;48597;49.030;1.822;2023-05-06T10:17:23;100784.59;;;20.12;49.69
62544;BME280;48597;49.030;1.822;2023-05-06T10:19:49;100784.13;;;20.13;49.64
62544;BME280;48597;49.030;1.822;2023-05-06T10:25:08;100784.13;;;20.13;49.68
62544;BME280;48597;49.030;1.822;2023-05-06T10:27:39;100781.25;;;20.13;49.67
62544;BME280;48597;49.030;1.822;2023-05-06T10:30:08;100782.53;;;20.12;49.70
62544;BME280;48597;49.030;1.822;2023-05-06T10:32:37;100782.06;;;20.14;49.75
62544;BME280;48597;49.030;1.822;2023-05-06T10:35:14;100782.88;;;20.14;49.89
62544;BME280;48597;49.030;1.822;2023-05-06T10:37:45;100779.19;;;20.14;49.70
62544;BME280;48597;49.030;1.822;2023-05-06T10:40:12;100782.06;;;20.14;49.67
62544;BME280;48597;49.030;1.822;2023-05-06T10:42:37;100777.16;;;20.14;49.84
62544;BME280;48597;49.030;1.822;2023-05-06T10:45:04;100780.81;;;20.15;49.86
62544;BME280;48597;49.030;1.822;2023-05-06T10:50:23;100773.84;;;20.16;49.69
62544;BME280;48597;49.030;1.822;2023-05-06T10:52:51;100777.50;;;20.16;49.89
62544;BME280;48597;49.030;1.822;2023-05-06T10:55:34;100769.72;;;20.17;49.80
62544;BME280;48597;49.030;1.822;2023-05-06T10:58:10;100766.03;;;20.16;49.70
62544;BME280;48597;49.030;1.822;2023-05-06T11:00:36;100770.53;;;20.17;49.90
62544;BME280;48597;49.030;1.822;2023-05-06T11:03:09;100765.59;;;20.18;49.77
62544;BME280;48597;49.030;1.822;2023-05-06T11:05:48;100757.81;;;20.18;49.88
62544;BME280;48597;49.030;1.822;2023-05-06T11:08:15;100760.69;;;20.18;49.79
62544;BME280;48597;49.030;1.822;2023-05-06T11:10:45;100761.03;;;20.20;49.73
62544;BME280;48597;49.030;1.822;2023-05-06T11:15:51;100760.22;;;20.20;49.66
62544;BME280;48597;49.030;1.822;2023-05-06T11:26:07;100764.69;;;20.21;49.85
62544;BME280;48597;49.030;1.822;2023-05-06T11:28:33;100770.41;;;20.21;49.90
62544;BME280;48597;49.030;1.822;2023-05-06T11:31:00;100776.94;;;20.21;49.84
62544;BME280;48597;49.030;1.822;2023-05-06T11:33:31;100774.09;;;20.21;49.82
62544;BME280;48597;49.030;1.822;2023-05-06T11:35:56;100771.31;;;20.18;49.95
62544;BME280;48597;49.030;1.822;2023-05-06T11:38:23;100761.84;;;20.21;49.75
62544;BME280;48597;49.030;1.822;2023-05-06T11:40:48;100760.13;;;20.23;49.65
62544;BME280;48597;49.030;1.822;2023-05-06T11:43:15;100751.53;;;20.23;49.68
62544;BME280;48597;49.030;1.822;2023-05-06T11:45:47;100745.81;;;20.23;49.65
62544;BME280;48597;49.030;1.822;2023-05-06T11:48:16;100750.28;;;20.24;49.61
62544;BME280;48597;49.030;1.822;2023-05-06T11:50:49;100755.53;;;20.26;49.70
62544;BME280;48597;49.030;1.822;2023-05-06T11:53:18;100749.78;;;20.26;49.86
62544;BME280;48597;49.030;1.822;2023-05-06T11:55:45;100751.41;;;20.27;49.68
62544;BME280;48597;49.030;1.822;2023-05-06T11:58:13;100750.16;;;20.28;49.83
62544;BME280;48597;49.030;1.822;2023-05-06T12:00:49;100744.41;;;20.28;49.74
62544;BME280;48597;49.030;1.822;2023-05-06T12:03:20;100750.50;;;20.30;49.88
62544;BME280;48597;49.030;1.822;2023-05-06T12:05:47;100751.75;;;20.29;49.89
62544;BME280;48597;49.030;1.822;2023-05-06T12:08:15;100753.81;;;20.28;50.02
62544;BME280;48597;49.030;1.822;2023-05-06T12:10:41;100746.84;;;20.29;49.95
62544;BME280;48597;49.030;1.822;2023-05-06T12:13:06;100745.56;;;20.30;49.91
62544;BME280;48597;49.030;1.822;2023-05-06T12:15:33;100752.09;;;20.31;49.99
62544;BME280;48597;49.030;1.822;2023-05-06T12:17:59;100751.31;;;20.30;49.94
62544;BME280;48597;49.030;1.822;2023-05-06T12:20:25;100752.91;;;20.31;49.94
62544;BME280;48597;49.030;1.822;2023-05-06T12:23:10;100752.91;;;20.31;50.07
62544;BME280;48597;49.030;1.822;2023-05-06T12:25:36;100753.72;;;20.32;50.06
62544;BME280;48597;49.030;1.822;2023-05-06T12:28:18;100758.19;;;20.33;49.84
62544;BME280;48597;49.030;1.822;2023-05-06T12:30:45;100757.38;;;20.32;50.05
62544;BME280;48597;49.030;1.822;2023-05-06T12:33:11;100755.31;;;20.33;50.02
62544;BME280;48597;49.030;1.822;2023-05-06T12:35:37;100746.72;;;20.33;49.98
62544;BME280;48597;49.030;1.822;2023-05-06T12:38:08;100750.41;;;20.33;50.01
62544;BME280;48597;49.030;1.822;2023-05-06T12:40:34;100745.91;;;20.32;49.87
62544;BME280;48597;49.030;1.822;2023-05-06T12:42:59;100752.44;;;20.33;50.07
62544;BME280;48597;49.030;1.822;2023-05-06T12:45:25;100752.00;;;20.34;49.98
62544;BME280;48597;49.030;1.822;2023-05-06T12:47:58;100754.06;;;20.34;49.88
62544;BME280;48597;49.030;1.822;2023-05-06T12:50:31;100758.53;;;20.35;49.87
62544;BME280;48597;49.030;1.822;2023-05-06T12:52:57;100761.84;;;20.33;50.09
62544;BME280;48597;49.030;1.822;2023-05-06T12:55:23;100766.31;;;20.34;49.92
62544;BME280;48597;49.030;1.822;2023-05-06T12:57:50;100764.25;;;20.35;49.90
62544;BME280;48597;49.030;1.822;2023-05-06T13:00:19;100762.66;;;20.34;50.01
62544;BME280;48597;49.030;1.822;2023-05-06T13:02:45;100762.22;;;20.36;49.91
62544;BME280;48597;49.030;1.822;2023-05-06T13:05:10;100760.16;;;20.36;49.95
62544;BME280;48597;49.030;1.822;2023-05-06T13:07:36;100761.38;;;20.35;49.95
62544;BME280;48597;49.030;1.822;2023-05-06T13:10:01;100770.81;;;20.36;50.05
62544;BME280;48597;49.030;1.822;2023-05-06T13:12:28;100771.63;;;20.36;49.87
62544;BME280;48597;49.030;1.822;2023-05-06T13:14:53;100765.09;;;20.36;49.83
62544;BME280;48597;49.030;1.822;2023-05-06T13:17:19;100763.84;;;20.37;49.91
62544;BME280;48597;49.030;1.822;2023-05-06T13:19:44;100766.69;;;20.37;49.94